sensor_id;sensor_type;location;lat;lon;timestamp;P1;durP1;ratioP1;P2;durP2;ratioP2
31798;SDS011;18374;51.136;3.502;2022-09-23T00:01:20;16.00;;;7.53;;
31798;SDS011;18374;51.136;3.502;2022-09-23T00:03:48;12.60;;;7.93;;
31798;SDS011;18374;51.136;3.502;2022-09-23T00:06:17;10.55;;;7.82;;
31798;SDS011;18374;51.136;3.502;2022-09-23T00:08:48;12.90;;;8.63;;
31798;SDS011;18374;51.136;3.502;2022-09-23T00:11:18;15.73;;;8.80;;
31798;SDS011;18374;51.136;3.502;2022-09-23T00:13:52;14.27;;;8.43;;
31798;SDS011;18374;51.136;3.502;2022-09-23T00:16:25;10.38;;;7.60;;
31798;SDS011;18374;51.136;3.502;2022-09-23T00:18:56;12.00;;;8.02;;
31798;SDS011;18374;51.136;3.502;2022-09-23T00:21:23;17.35;;;7.70;;
31798;SDS011;18374;51.136;3.502;2022-09-23T00:23:51;14.25;;;8.32;;
31798;SDS011;18374;51.136;3.502;2022-09-23T00:26:20;11.10;;;7.85;;
31798;SDS011;18374;51.136;3.502;2022-09-23T00:28:49;12.95;;;7.47;;
31798;SDS011;18374;51.136;3.502;2022-09-23T00:31:21;13.65;;;7.30;;
31798;SDS011;18374;51.136;3.502;2022-09-23T00:33:52;15.02;;;7.75;;
31798;SDS011;18374;51.136;3.502;2022-09-23T00:36:22;12.55;;;8.00;;
31798;SDS011;18374;51.136;3.502;2022-09-23T00:38:52;17.33;;;7.97;;
31798;SDS011;18374;51.136;3.502;2022-09-23T00:41:21;16.00;;;8.55;;
31798;SDS011;18374;51.136;3.502;2022-09-23T00:43:54;11.60;;;7.07;;
31798;SDS011;18374;51.136;3.502;2022-09-23T00:49:18;11.38;;;7.63;;
31798;SDS011;18374;51.136;3.502;2022-09-23T00:51:57;12.45;;;6.93;;
31798;SDS011;18374;51.136;3.502;2022-09-23T00:54:31;10.25;;;7.55;;
31798;SDS011;18374;51.136;3.502;2022-09-23T00:56:59;10.52;;;7.60;;
31798;SDS011;18374;51.136;3.502;2022-09-23T00:59:29;12.07;;;8.38;;
31798;SDS011;18374;51.136;3.502;2022-09-23T01:01:59;15.30;;;8.32;;
31798;SDS011;18374;51.136;3.502;2022-09-23T01:04:29;12.80;;;7.60;;
31798;SDS011;18374;51.136;3.502;2022-09-23T01:06:58;11.45;;;8.00;;
31798;SDS011;18374;51.136;3.502;2022-09-23T01:09:25;11.65;;;8.20;;
31798;SDS011;18374;51.136;3.502;2022-09-23T01:14:54;10.90;;;7.57;;
31798;SDS011;18374;51.136;3.502;2022-09-23T01:21:13;13.25;;;7.03;;
31798;SDS011;18374;51.136;3.502;2022-09-23T01:27:09;11.27;;;7.90;;
31798;SDS011;18374;51.136;3.502;2022-09-23T01:44:09;11.40;;;8.02;;
31798;SDS011;18374;51.136;3.502;2022-09-23T01:49:34;11.85;;;7.78;;
31798;SDS011;18374;51.136;3.502;2022-09-23T01:55:12;11.85;;;8.13;;
31798;SDS011;18374;51.136;3.502;2022-09-23T01:58:03;10.63;;;8.10;;
31798;SDS011;18374;51.136;3.502;2022-09-23T02:00:47;11.15;;;7.88;;
31798;SDS011;18374;51.136;3.502;2022-09-23T02:03:23;12.25;;;8.18;;
31798;SDS011;18374;51.136;3.502;2022-09-23T02:06:15;11.38;;;7.70;;
31798;SDS011;18374;51.136;3.502;2022-09-23T02:08:53;12.52;;;7.78;;
31798;SDS011;18374;51.136;3.502;2022-09-23T02:11:28;14.43;;;7.82;;
31798;SDS011;18374;51.136;3.502;2022-09-23T02:14:07;8.73;;;7.18;;
31798;SDS011;18374;51.136;3.502;2022-09-23T02:16:48;10.30;;;7.47;;
31798;SDS011;18374;51.136;3.502;2022-09-23T02:19:27;16.77;;;7.93;;
31798;SDS011;18374;51.136;3.502;2022-09-23T02:22:25;14.52;;;7.80;;
31798;SDS011;18374;51.136;3.502;2022-09-23T02:25:18;12.82;;;7.35;;
31798;SDS011;18374;51.136;3.502;2022-09-23T02:27:57;8.63;;;7.17;;
31798;SDS011;18374;51.136;3.502;2022-09-23T02:30:51;11.38;;;7.22;;
31798;SDS011;18374;51.136;3.502;2022-09-23T02:33:34;11.77;;;7.53;;
31798;SDS011;18374;51.136;3.502;2022-09-23T02:38:45;8.45;;;6.45;;
31798;SDS011;18374;51.136;3.502;2022-09-23T02:41:25;10.43;;;7.05;;
31798;SDS011;18374;51.136;3.502;2022-09-23T02:44:12;9.32;;;6.63;;
31798;SDS011;18374;51.136;3.502;2022-09-23T02:46:43;9.95;;;6.75;;
31798;SDS011;18374;51.136;3.502;2022-09-23T02:49:13;12.20;;;6.97;;
31798;SDS011;18374;51.136;3.502;2022-09-23T02:51:56;9.52;;;7.07;;
31798;SDS011;18374;51.136;3.502;2022-09-23T02:54:31;12.82;;;7.28;;
31798;SDS011;18374;51.136;3.502;2022-09-23T02:57:01;11.02;;;7.50;;
31798;SDS011;18374;51.136;3.502;2022-09-23T02:59:32;9.07;;;6.55;;
31798;SDS011;18374;51.136;3.502;2022-09-23T03:05:09;8.73;;;6.07;;
31798;SDS011;18374;51.136;3.502;2022-09-23T03:11:15;12.93;;;7.88;;
31798;SDS011;18374;51.136;3.502;2022-09-23T03:19:15;15.95;;;7.28;;
31798;SDS011;18374;51.136;3.502;2022-09-23T03:21:57;10.93;;;6.93;;
31798;SDS011;18374;51.136;3.502;2022-09-23T03:24:35;11.60;;;6.93;;
31798;SDS011;18374;51.136;3.502;2022-09-23T03:27:09;15.23;;;7.57;;
31798;SDS011;18374;51.136;3.502;2022-09-23T03:29:44;13.77;;;7.22;;
31798;SDS011;18374;51.136;3.502;2022-09-23T03:32:16;11.45;;;6.90;;
31798;SDS011;18374;51.136;3.502;2022-09-23T03:34:47;12.68;;;7.30;;
31798;SDS011;18374;51.136;3.502;2022-09-23T03:42:45;9.85;;;6.68;;
31798;SDS011;18374;51.136;3.502;2022-09-23T03:45:17;9.43;;;6.80;;
31798;SDS011;18374;51.136;3.502;2022-09-23T03:47:49;8.63;;;6.35;;
31798;SDS011;18374;51.136;3.502;2022-09-23T03:50:17;10.77;;;6.85;;
31798;SDS011;18374;51.136;3.502;2022-09-23T03:52:46;13.05;;;7.53;;
31798;SDS011;18374;51.136;3.502;2022-09-23T03:55:17;10.35;;;6.65;;
31798;SDS011;18374;51.136;3.502;2022-09-23T03:57:45;8.80;;;6.53;;
31798;SDS011;18374;51.136;3.502;2022-09-23T04:00:14;9.77;;;6.00;;
31798;SDS011;18374;51.136;3.502;2022-09-23T04:02:42;14.55;;;7.65;;
31798;SDS011;18374;51.136;3.502;2022-09-23T04:05:10;11.70;;;6.50;;
31798;SDS011;18374;51.136;3.502;2022-09-23T04:07:39;9.68;;;6.65;;
31798;SDS011;18374;51.136;3.502;2022-09-23T04:10:07;11.40;;;6.80;;
31798;SDS011;18374;51.136;3.502;2022-09-23T04:12:36;8.57;;;6.25;;
31798;SDS011;18374;51.136;3.502;2022-09-23T04:15:04;7.68;;;6.10;;
31798;SDS011;18374;51.136;3.502;2022-09-23T04:17:33;9.07;;;6.03;;
31798;SDS011;18374;51.136;3.502;2022-09-23T04:20:01;10.40;;;6.70;;
31798;SDS011;18374;51.136;3.502;2022-09-23T04:22:29;13.50;;;7.07;;
31798;SDS011;18374;51.136;3.502;2022-09-23T04:24:59;8.05;;;6.57;;
31798;SDS011;18374;51.136;3.502;2022-09-23T04:27:26;10.70;;;6.57;;
31798;SDS011;18374;51.136;3.502;2022-09-23T04:29:54;8.65;;;6.00;;
31798;SDS011;18374;51.136;3.502;2022-09-23T04:32:22;12.73;;;6.50;;
31798;SDS011;18374;51.136;3.502;2022-09-23T04:34:50;10.73;;;7.07;;
31798;SDS011;18374;51.136;3.502;2022-09-23T04:37:18;12.93;;;7.53;;
31798;SDS011;18374;51.136;3.502;2022-09-23T04:39:46;7.93;;;6.20;;
31798;SDS011;18374;51.136;3.502;2022-09-23T04:42:13;11.75;;;6.70;;
31798;SDS011;18374;51.136;3.502;2022-09-23T04:44:41;12.05;;;6.78;;
31798;SDS011;18374;51.136;3.502;2022-09-23T04:47:09;12.23;;;7.38;;
31798;SDS011;18374;51.136;3.502;2022-09-23T04:49:37;12.13;;;7.03;;
31798;SDS011;18374;51.136;3.502;2022-09-23T04:52:05;9.43;;;6.40;;
31798;SDS011;18374;51.136;3.502;2022-09-23T04:54:33;11.25;;;7.38;;
31798;SDS011;18374;51.136;3.502;2022-09-23T04:57:01;11.95;;;6.78;;
31798;SDS011;18374;51.136;3.502;2022-09-23T04:59:28;9.38;;;6.20;;
31798;SDS011;18374;51.136;3.502;2022-09-23T05:01:56;10.60;;;7.50;;
31798;SDS011;18374;51.136;3.502;2022-09-23T05:04:24;8.55;;;5.80;;
31798;SDS011;18374;51.136;3.502;2022-09-23T05:06:52;15.38;;;6.90;;
31798;SDS011;18374;51.136;3.502;2022-09-23T05:09:19;11.05;;;7.07;;
31798;SDS011;18374;51.136;3.502;2022-09-23T05:11:47;9.75;;;6.70;;
31798;SDS011;18374;51.136;3.502;2022-09-23T05:14:15;11.52;;;7.07;;
31798;SDS011;18374;51.136;3.502;2022-09-23T05:16:42;8.95;;;6.50;;
31798;SDS011;18374;51.136;3.502;2022-09-23T05:19:10;13.40;;;6.95;;
31798;SDS011;18374;51.136;3.502;2022-09-23T05:21:39;12.80;;;6.40;;
31798;SDS011;18374;51.136;3.502;2022-09-23T05:24:07;13.82;;;7.68;;
31798;SDS011;18374;51.136;3.502;2022-09-23T05:26:35;10.13;;;6.50;;
31798;SDS011;18374;51.136;3.502;2022-09-23T05:29:04;14.63;;;6.57;;
31798;SDS011;18374;51.136;3.502;2022-09-23T05:31:32;10.18;;;6.45;;
31798;SDS011;18374;51.136;3.502;2022-09-23T05:34:02;15.60;;;6.93;;
31798;SDS011;18374;51.136;3.502;2022-09-23T05:36:32;10.02;;;6.38;;
31798;SDS011;18374;51.136;3.502;2022-09-23T05:39:05;10.93;;;6.47;;
31798;SDS011;18374;51.136;3.502;2022-09-23T05:41:34;9.80;;;6.03;;
31798;SDS011;18374;51.136;3.502;2022-09-23T05:44:02;10.50;;;5.82;;
31798;SDS011;18374;51.136;3.502;2022-09-23T05:46:30;14.88;;;6.90;;
31798;SDS011;18374;51.136;3.502;2022-09-23T05:48:59;7.78;;;5.95;;
31798;SDS011;18374;51.136;3.502;2022-09-23T05:51:30;11.05;;;6.60;;
31798;SDS011;18374;51.136;3.502;2022-09-23T05:53:59;9.10;;;6.65;;
31798;SDS011;18374;51.136;3.502;2022-09-23T05:56:30;8.25;;;6.20;;
31798;SDS011;18374;51.136;3.502;2022-09-23T05:59:00;9.48;;;6.47;;
31798;SDS011;18374;51.136;3.502;2022-09-23T06:01:30;9.60;;;6.60;;
31798;SDS011;18374;51.136;3.502;2022-09-23T06:04:00;8.90;;;5.80;;
31798;SDS011;18374;51.136;3.502;2022-09-23T06:06:38;11.48;;;7.03;;
31798;SDS011;18374;51.136;3.502;2022-09-23T06:09:11;11.55;;;6.45;;
31798;SDS011;18374;51.136;3.502;2022-09-23T06:11:41;14.70;;;7.43;;
31798;SDS011;18374;51.136;3.502;2022-09-23T06:14:12;11.15;;;7.03;;
31798;SDS011;18374;51.136;3.502;2022-09-23T06:16:40;12.18;;;6.38;;
31798;SDS011;18374;51.136;3.502;2022-09-23T06:19:09;13.82;;;6.93;;
31798;SDS011;18374;51.136;3.502;2022-09-23T06:21:37;13.00;;;7.50;;
31798;SDS011;18374;51.136;3.502;2022-09-23T06:24:06;9.00;;;6.40;;
31798;SDS011;18374;51.136;3.502;2022-09-23T06:26:35;11.10;;;7.43;;
31798;SDS011;18374;51.136;3.502;2022-09-23T06:29:08;12.13;;;7.18;;
31798;SDS011;18374;51.136;3.502;2022-09-23T06:31:40;11.20;;;7.40;;
31798;SDS011;18374;51.136;3.502;2022-09-23T06:34:10;13.18;;;8.02;;
31798;SDS011;18374;51.136;3.502;2022-09-23T06:36:40;12.60;;;7.70;;
31798;SDS011;18374;51.136;3.502;2022-09-23T06:39:12;13.25;;;7.18;;
31798;SDS011;18374;51.136;3.502;2022-09-23T06:41:42;14.32;;;7.53;;
31798;SDS011;18374;51.136;3.502;2022-09-23T06:44:12;13.95;;;7.05;;
31798;SDS011;18374;51.136;3.502;2022-09-23T06:46:41;17.45;;;7.95;;
31798;SDS011;18374;51.136;3.502;2022-09-23T06:49:10;14.13;;;7.60;;
31798;SDS011;18374;51.136;3.502;2022-09-23T06:51:39;13.30;;;7.68;;
31798;SDS011;18374;51.136;3.502;2022-09-23T06:54:07;15.27;;;7.90;;
31798;SDS011;18374;51.136;3.502;2022-09-23T06:56:35;14.65;;;7.90;;
31798;SDS011;18374;51.136;3.502;2022-09-23T06:59:06;18.80;;;8.05;;
31798;SDS011;18374;51.136;3.502;2022-09-23T07:01:36;12.20;;;7.70;;
31798;SDS011;18374;51.136;3.502;2022-09-23T07:04:04;11.20;;;7.30;;
31798;SDS011;18374;51.136;3.502;2022-09-23T07:06:33;14.15;;;7.82;;
31798;SDS011;18374;51.136;3.502;2022-09-23T07:09:02;15.25;;;7.50;;
31798;SDS011;18374;51.136;3.502;2022-09-23T07:11:31;10.73;;;6.75;;
31798;SDS011;18374;51.136;3.502;2022-09-23T07:14:00;12.73;;;7.20;;
31798;SDS011;18374;51.136;3.502;2022-09-23T07:16:28;14.55;;;7.43;;
31798;SDS011;18374;51.136;3.502;2022-09-23T07:18:55;12.05;;;7.40;;
31798;SDS011;18374;51.136;3.502;2022-09-23T07:21:23;13.90;;;7.90;;
31798;SDS011;18374;51.136;3.502;2022-09-23T07:23:52;14.32;;;7.35;;
31798;SDS011;18374;51.136;3.502;2022-09-23T07:26:21;17.73;;;7.57;;
31798;SDS011;18374;51.136;3.502;2022-09-23T07:28:55;10.43;;;7.47;;
31798;SDS011;18374;51.136;3.502;2022-09-23T07:31:31;15.95;;;8.05;;
31798;SDS011;18374;51.136;3.502;2022-09-23T07:34:06;17.88;;;8.13;;
31798;SDS011;18374;51.136;3.502;2022-09-23T07:36:37;13.43;;;6.78;;
31798;SDS011;18374;51.136;3.502;2022-09-23T07:39:08;12.90;;;7.63;;
31798;SDS011;18374;51.136;3.502;2022-09-23T07:41:37;9.82;;;6.88;;
31798;SDS011;18374;51.136;3.502;2022-09-23T07:44:08;10.73;;;7.35;;
31798;SDS011;18374;51.136;3.502;2022-09-23T07:46:37;10.77;;;7.07;;
31798;SDS011;18374;51.136;3.502;2022-09-23T07:49:06;13.55;;;6.53;;
31798;SDS011;18374;51.136;3.502;2022-09-23T07:51:34;12.57;;;6.90;;
31798;SDS011;18374;51.136;3.502;2022-09-23T07:54:10;15.27;;;7.50;;
31798;SDS011;18374;51.136;3.502;2022-09-23T07:56:40;10.63;;;6.20;;
31798;SDS011;18374;51.136;3.502;2022-09-23T07:59:11;13.40;;;7.93;;
31798;SDS011;18374;51.136;3.502;2022-09-23T08:01:43;13.73;;;7.13;;
31798;SDS011;18374;51.136;3.502;2022-09-23T08:04:19;12.32;;;7.25;;
31798;SDS011;18374;51.136;3.502;2022-09-23T08:06:55;17.50;;;8.23;;
31798;SDS011;18374;51.136;3.502;2022-09-23T08:09:27;11.68;;;7.35;;
31798;SDS011;18374;51.136;3.502;2022-09-23T08:11:59;15.23;;;8.10;;
31798;SDS011;18374;51.136;3.502;2022-09-23T08:14:27;12.90;;;6.75;;
31798;SDS011;18374;51.136;3.502;2022-09-23T08:16:55;13.98;;;7.82;;
31798;SDS011;18374;51.136;3.502;2022-09-23T08:19:23;13.13;;;7.03;;
31798;SDS011;18374;51.136;3.502;2022-09-23T08:21:51;15.20;;;8.10;;
31798;SDS011;18374;51.136;3.502;2022-09-23T08:24:20;14.38;;;7.10;;
31798;SDS011;18374;51.136;3.502;2022-09-23T08:26:50;13.75;;;7.43;;
31798;SDS011;18374;51.136;3.502;2022-09-23T08:29:20;11.90;;;7.15;;
31798;SDS011;18374;51.136;3.502;2022-09-23T08:31:51;10.60;;;7.30;;
31798;SDS011;18374;51.136;3.502;2022-09-23T08:34:19;12.65;;;6.43;;
31798;SDS011;18374;51.136;3.502;2022-09-23T08:36:49;11.48;;;8.05;;
31798;SDS011;18374;51.136;3.502;2022-09-23T08:39:18;15.23;;;7.00;;
31798;SDS011;18374;51.136;3.502;2022-09-23T08:44:47;12.82;;;6.88;;
31798;SDS011;18374;51.136;3.502;2022-09-23T08:47:23;12.95;;;7.43;;
31798;SDS011;18374;51.136;3.502;2022-09-23T08:50:07;11.82;;;7.45;;
31798;SDS011;18374;51.136;3.502;2022-09-23T08:55:33;18.60;;;7.40;;
31798;SDS011;18374;51.136;3.502;2022-09-23T08:58:07;16.83;;;7.40;;
31798;SDS011;18374;51.136;3.502;2022-09-23T09:01:33;9.80;;;7.22;;
31798;SDS011;18374;51.136;3.502;2022-09-23T09:12:45;19.67;;;8.13;;
31798;SDS011;18374;51.136;3.502;2022-09-23T09:15:18;13.93;;;7.90;;
31798;SDS011;18374;51.136;3.502;2022-09-23T09:18:01;13.07;;;7.10;;
31798;SDS011;18374;51.136;3.502;2022-09-23T09:20:58;15.55;;;7.97;;
31798;SDS011;18374;51.136;3.502;2022-09-23T09:26:15;13.63;;;7.97;;
31798;SDS011;18374;51.136;3.502;2022-09-23T09:31:45;15.07;;;7.18;;
31798;SDS011;18374;51.136;3.502;2022-09-23T09:39:33;15.43;;;7.82;;
31798;SDS011;18374;51.136;3.502;2022-09-23T09:42:02;12.77;;;8.15;;
31798;SDS011;18374;51.136;3.502;2022-09-23T09:47:34;14.43;;;8.45;;
31798;SDS011;18374;51.136;3.502;2022-09-23T09:50:14;19.55;;;8.63;;
31798;SDS011;18374;51.136;3.502;2022-09-23T09:52:48;20.23;;;8.68;;
31798;SDS011;18374;51.136;3.502;2022-09-23T09:55:27;15.80;;;8.43;;
31798;SDS011;18374;51.136;3.502;2022-09-23T10:02:56;16.58;;;8.43;;
31798;SDS011;18374;51.136;3.502;2022-09-23T10:05:49;13.20;;;8.48;;
31798;SDS011;18374;51.136;3.502;2022-09-23T10:08:28;21.95;;;8.05;;
31798;SDS011;18374;51.136;3.502;2022-09-23T10:11:15;14.18;;;8.80;;
31798;SDS011;18374;51.136;3.502;2022-09-23T10:16:45;15.13;;;8.30;;
31798;SDS011;18374;51.136;3.502;2022-09-23T10:19:31;14.82;;;8.55;;
31798;SDS011;18374;51.136;3.502;2022-09-23T10:22:03;15.63;;;7.90;;
31798;SDS011;18374;51.136;3.502;2022-09-23T10:24:51;14.00;;;8.32;;
31798;SDS011;18374;51.136;3.502;2022-09-23T10:27:28;11.70;;;7.78;;
31798;SDS011;18374;51.136;3.502;2022-09-23T10:30:00;13.73;;;7.78;;
31798;SDS011;18374;51.136;3.502;2022-09-23T10:32:48;13.15;;;7.68;;
31798;SDS011;18374;51.136;3.502;2022-09-23T10:35:19;13.30;;;7.85;;
31798;SDS011;18374;51.136;3.502;2022-09-23T10:37:59;15.05;;;7.57;;
31798;SDS011;18374;51.136;3.502;2022-09-23T10:40:39;12.18;;;7.20;;
31798;SDS011;18374;51.136;3.502;2022-09-23T10:47:31;12.55;;;6.57;;
31798;SDS011;18374;51.136;3.502;2022-09-23T10:53:12;13.15;;;7.93;;
31798;SDS011;18374;51.136;3.502;2022-09-23T11:16:22;14.02;;;7.63;;
31798;SDS011;18374;51.136;3.502;2022-09-23T11:27:54;21.70;;;14.95;;
31798;SDS011;18374;51.136;3.502;2022-09-23T11:33:49;15.52;;;10.38;;
31798;SDS011;18374;51.136;3.502;2022-09-23T11:36:43;11.82;;;8.38;;
31798;SDS011;18374;51.136;3.502;2022-09-23T11:39:20;16.95;;;8.95;;
31798;SDS011;18374;51.136;3.502;2022-09-23T11:41:58;16.27;;;9.32;;
31798;SDS011;18374;51.136;3.502;2022-09-23T11:44:32;20.42;;;12.13;;
31798;SDS011;18374;51.136;3.502;2022-09-23T11:47:18;18.50;;;9.40;;
31798;SDS011;18374;51.136;3.502;2022-09-23T11:49:59;12.35;;;8.32;;
31798;SDS011;18374;51.136;3.502;2022-09-23T11:52:47;13.68;;;9.57;;
31798;SDS011;18374;51.136;3.502;2022-09-23T11:55:26;21.08;;;10.82;;
31798;SDS011;18374;51.136;3.502;2022-09-23T12:02:07;16.15;;;10.60;;
31798;SDS011;18374;51.136;3.502;2022-09-23T12:09:43;18.88;;;9.10;;
31798;SDS011;18374;51.136;3.502;2022-09-23T12:15:22;13.50;;;8.70;;
31798;SDS011;18374;51.136;3.502;2022-09-23T12:27:10;13.10;;;8.98;;
31798;SDS011;18374;51.136;3.502;2022-09-23T12:30:12;9.88;;;6.72;;
31798;SDS011;18374;51.136;3.502;2022-09-23T12:32:44;35.22;;;17.33;;
31798;SDS011;18374;51.136;3.502;2022-09-23T12:35:20;16.95;;;9.07;;
31798;SDS011;18374;51.136;3.502;2022-09-23T12:37:58;18.30;;;8.13;;
31798;SDS011;18374;51.136;3.502;2022-09-23T12:40:31;8.25;;;6.63;;
31798;SDS011;18374;51.136;3.502;2022-09-23T12:43:25;12.85;;;9.48;;
31798;SDS011;18374;51.136;3.502;2022-09-23T12:46:18;12.85;;;8.93;;
31798;SDS011;18374;51.136;3.502;2022-09-23T12:51:25;10.60;;;6.40;;
31798;SDS011;18374;51.136;3.502;2022-09-23T12:53:58;10.50;;;7.30;;
31798;SDS011;18374;51.136;3.502;2022-09-23T12:57:38;13.38;;;8.02;;
31798;SDS011;18374;51.136;3.502;2022-09-23T13:01:55;11.20;;;8.38;;
31798;SDS011;18374;51.136;3.502;2022-09-23T13:08:01;11.75;;;8.95;;
31798;SDS011;18374;51.136;3.502;2022-09-23T13:10:42;13.15;;;8.75;;
31798;SDS011;18374;51.136;3.502;2022-09-23T13:13:30;13.48;;;9.02;;
31798;SDS011;18374;51.136;3.502;2022-09-23T13:16:24;13.77;;;9.80;;
31798;SDS011;18374;51.136;3.502;2022-09-23T13:19:04;13.60;;;10.63;;
31798;SDS011;18374;51.136;3.502;2022-09-23T13:35:38;16.50;;;11.90;;
31798;SDS011;18374;51.136;3.502;2022-09-23T13:40:55;16.75;;;13.35;;
31798;SDS011;18374;51.136;3.502;2022-09-23T13:43:34;19.77;;;13.23;;
31798;SDS011;18374;51.136;3.502;2022-09-23T13:49:54;20.35;;;13.45;;
31798;SDS011;18374;51.136;3.502;2022-09-23T13:52:02;14.75;;;11.85;;
31798;SDS011;18374;51.136;3.502;2022-09-23T13:54:35;24.38;;;12.77;;
31798;SDS011;18374;51.136;3.502;2022-09-23T13:57:32;49.93;;;24.43;;
31798;SDS011;18374;51.136;3.502;2022-09-23T14:00:01;32.65;;;17.63;;
31798;SDS011;18374;51.136;3.502;2022-09-23T14:02:47;25.58;;;15.40;;
31798;SDS011;18374;51.136;3.502;2022-09-23T14:05:22;19.80;;;14.80;;
31798;SDS011;18374;51.136;3.502;2022-09-23T14:07:55;17.88;;;13.18;;
31798;SDS011;18374;51.136;3.502;2022-09-23T14:10:23;24.58;;;13.60;;
31798;SDS011;18374;51.136;3.502;2022-09-23T14:12:53;17.02;;;12.23;;
31798;SDS011;18374;51.136;3.502;2022-09-23T14:15:22;14.88;;;11.05;;
31798;SDS011;18374;51.136;3.502;2022-09-23T14:17:51;14.18;;;9.40;;
31798;SDS011;18374;51.136;3.502;2022-09-23T14:20:27;11.18;;;9.23;;
31798;SDS011;18374;51.136;3.502;2022-09-23T14:23:03;13.82;;;9.65;;
31798;SDS011;18374;51.136;3.502;2022-09-23T14:25:40;13.73;;;9.27;;
31798;SDS011;18374;51.136;3.502;2022-09-23T14:28:14;17.35;;;10.18;;
31798;SDS011;18374;51.136;3.502;2022-09-23T14:30:45;21.42;;;11.00;;
31798;SDS011;18374;51.136;3.502;2022-09-23T14:33:17;26.77;;;12.20;;
31798;SDS011;18374;51.136;3.502;2022-09-23T14:36:01;87.35;;;31.88;;
31798;SDS011;18374;51.136;3.502;2022-09-23T14:39:00;49.17;;;19.35;;
31798;SDS011;18374;51.136;3.502;2022-09-23T14:41:38;41.13;;;16.95;;
31798;SDS011;18374;51.136;3.502;2022-09-23T14:44:28;14.68;;;9.52;;
31798;SDS011;18374;51.136;3.502;2022-09-23T14:46:59;15.13;;;9.43;;
31798;SDS011;18374;51.136;3.502;2022-09-23T14:49:27;12.02;;;7.78;;
31798;SDS011;18374;51.136;3.502;2022-09-23T14:51:58;9.52;;;7.40;;
31798;SDS011;18374;51.136;3.502;2022-09-23T14:54:40;12.10;;;7.13;;
31798;SDS011;18374;51.136;3.502;2022-09-23T14:57:29;9.38;;;6.90;;
31798;SDS011;18374;51.136;3.502;2022-09-23T14:59:58;8.15;;;6.38;;
31798;SDS011;18374;51.136;3.502;2022-09-23T15:02:35;13.23;;;6.43;;
31798;SDS011;18374;51.136;3.502;2022-09-23T15:05:18;9.98;;;6.60;;
31798;SDS011;18374;51.136;3.502;2022-09-23T15:07:50;7.75;;;6.25;;
31798;SDS011;18374;51.136;3.502;2022-09-23T15:10:21;8.65;;;5.95;;
31798;SDS011;18374;51.136;3.502;2022-09-23T15:13:13;7.22;;;6.13;;
31798;SDS011;18374;51.136;3.502;2022-09-23T15:15:45;10.68;;;6.93;;
31798;SDS011;18374;51.136;3.502;2022-09-23T15:18:14;10.10;;;6.57;;
31798;SDS011;18374;51.136;3.502;2022-09-23T15:21:32;10.75;;;7.38;;
31798;SDS011;18374;51.136;3.502;2022-09-23T15:23:51;10.20;;;7.60;;
31798;SDS011;18374;51.136;3.502;2022-09-23T15:26:25;11.93;;;7.95;;
31798;SDS011;18374;51.136;3.502;2022-09-23T15:29:23;11.68;;;8.65;;
31798;SDS011;18374;51.136;3.502;2022-09-23T15:31:52;12.43;;;8.10;;
31798;SDS011;18374;51.136;3.502;2022-09-23T15:34:21;14.40;;;9.07;;
31798;SDS011;18374;51.136;3.502;2022-09-23T15:36:49;15.98;;;8.45;;
31798;SDS011;18374;51.136;3.502;2022-09-23T15:39:17;12.02;;;8.70;;
31798;SDS011;18374;51.136;3.502;2022-09-23T15:41:44;11.18;;;8.52;;
31798;SDS011;18374;51.136;3.502;2022-09-23T15:44:13;30.02;;;19.42;;
31798;SDS011;18374;51.136;3.502;2022-09-23T15:46:52;19.52;;;13.77;;
31798;SDS011;18374;51.136;3.502;2022-09-23T15:49:30;18.23;;;12.68;;
31798;SDS011;18374;51.136;3.502;2022-09-23T15:52:02;17.40;;;12.10;;
31798;SDS011;18374;51.136;3.502;2022-09-23T15:54:33;22.17;;;14.38;;
31798;SDS011;18374;51.136;3.502;2022-09-23T15:57:00;21.48;;;14.77;;
31798;SDS011;18374;51.136;3.502;2022-09-23T15:59:28;26.48;;;18.38;;
31798;SDS011;18374;51.136;3.502;2022-09-23T16:01:58;22.05;;;15.60;;
31798;SDS011;18374;51.136;3.502;2022-09-23T16:07:01;14.57;;;10.07;;
31798;SDS011;18374;51.136;3.502;2022-09-23T16:09:31;14.38;;;10.70;;
31798;SDS011;18374;51.136;3.502;2022-09-23T16:11:59;18.40;;;12.07;;
31798;SDS011;18374;51.136;3.502;2022-09-23T16:14:28;21.83;;;13.30;;
31798;SDS011;18374;51.136;3.502;2022-09-23T16:16:56;34.88;;;22.48;;
31798;SDS011;18374;51.136;3.502;2022-09-23T16:19:28;24.65;;;17.35;;
31798;SDS011;18374;51.136;3.502;2022-09-23T16:22:00;22.63;;;14.43;;
31798;SDS011;18374;51.136;3.502;2022-09-23T16:24:28;14.68;;;12.05;;
31798;SDS011;18374;51.136;3.502;2022-09-23T16:26:56;16.65;;;12.15;;
31798;SDS011;18374;51.136;3.502;2022-09-23T16:29:26;18.45;;;12.38;;
31798;SDS011;18374;51.136;3.502;2022-09-23T16:31:54;20.35;;;12.93;;
31798;SDS011;18374;51.136;3.502;2022-09-23T16:34:22;18.50;;;12.70;;
31798;SDS011;18374;51.136;3.502;2022-09-23T16:36:49;19.25;;;11.88;;
31798;SDS011;18374;51.136;3.502;2022-09-23T16:39:17;12.68;;;10.45;;
31798;SDS011;18374;51.136;3.502;2022-09-23T16:41:46;16.42;;;12.32;;
31798;SDS011;18374;51.136;3.502;2022-09-23T16:44:14;16.58;;;10.98;;
31798;SDS011;18374;51.136;3.502;2022-09-23T16:46:42;13.75;;;9.48;;
31798;SDS011;18374;51.136;3.502;2022-09-23T16:49:10;15.63;;;10.68;;
31798;SDS011;18374;51.136;3.502;2022-09-23T16:51:38;14.65;;;10.57;;
31798;SDS011;18374;51.136;3.502;2022-09-23T16:54:08;17.75;;;10.40;;
31798;SDS011;18374;51.136;3.502;2022-09-23T16:56:40;12.32;;;9.73;;
31798;SDS011;18374;51.136;3.502;2022-09-23T16:59:10;13.45;;;9.68;;
31798;SDS011;18374;51.136;3.502;2022-09-23T17:01:39;14.40;;;9.02;;
31798;SDS011;18374;51.136;3.502;2022-09-23T17:04:26;14.55;;;10.70;;
31798;SDS011;18374;51.136;3.502;2022-09-23T17:06:54;12.52;;;9.40;;
31798;SDS011;18374;51.136;3.502;2022-09-23T17:09:24;14.00;;;9.38;;
31798;SDS011;18374;51.136;3.502;2022-09-23T17:14:55;16.60;;;9.95;;
31798;SDS011;18374;51.136;3.502;2022-09-23T17:17:23;17.85;;;9.80;;
31798;SDS011;18374;51.136;3.502;2022-09-23T17:19:51;13.73;;;10.02;;
31798;SDS011;18374;51.136;3.502;2022-09-23T17:22:19;17.80;;;9.52;;
31798;SDS011;18374;51.136;3.502;2022-09-23T17:24:47;12.05;;;8.68;;
31798;SDS011;18374;51.136;3.502;2022-09-23T17:27:14;12.70;;;8.57;;
31798;SDS011;18374;51.136;3.502;2022-09-23T17:29:43;13.95;;;9.15;;
31798;SDS011;18374;51.136;3.502;2022-09-23T17:32:12;14.02;;;8.98;;
31798;SDS011;18374;51.136;3.502;2022-09-23T17:34:39;12.88;;;8.68;;
31798;SDS011;18374;51.136;3.502;2022-09-23T17:37:09;15.20;;;8.70;;
31798;SDS011;18374;51.136;3.502;2022-09-23T17:39:38;14.48;;;8.52;;
31798;SDS011;18374;51.136;3.502;2022-09-23T17:42:08;11.32;;;8.05;;
31798;SDS011;18374;51.136;3.502;2022-09-23T17:44:36;11.75;;;8.13;;
31798;SDS011;18374;51.136;3.502;2022-09-23T17:47:04;12.80;;;8.63;;
31798;SDS011;18374;51.136;3.502;2022-09-23T17:49:32;13.77;;;8.68;;
31798;SDS011;18374;51.136;3.502;2022-09-23T17:52:01;16.08;;;8.70;;
31798;SDS011;18374;51.136;3.502;2022-09-23T17:54:31;13.52;;;8.60;;
31798;SDS011;18374;51.136;3.502;2022-09-23T17:56:59;29.20;;;17.25;;
31798;SDS011;18374;51.136;3.502;2022-09-23T17:59:27;24.80;;;15.02;;
31798;SDS011;18374;51.136;3.502;2022-09-23T18:01:55;23.45;;;15.80;;
31798;SDS011;18374;51.136;3.502;2022-09-23T18:04:22;28.67;;;19.58;;
31798;SDS011;18374;51.136;3.502;2022-09-23T18:06:50;62.67;;;37.00;;
31798;SDS011;18374;51.136;3.502;2022-09-23T18:09:18;44.38;;;28.38;;
31798;SDS011;18374;51.136;3.502;2022-09-23T18:11:46;21.15;;;13.50;;
31798;SDS011;18374;51.136;3.502;2022-09-23T18:14:18;12.18;;;9.30;;